createdAt,value
2023-01-25T00:00:10.110Z,18.53
2023-01-25T00:01:10.049Z,18.55
2023-01-25T00:02:10.830Z,18.55
2023-01-25T00:03:10.052Z,18.55
2023-01-25T00:04:09.984Z,18.56
2023-01-25T00:05:10.221Z,18.55
2023-01-25T00:06:09.985Z,18.55
2023-01-25T00:07:09.964Z,18.55
2023-01-25T00:08:10.042Z,18.55
2023-01-25T00:09:09.939Z,18.55
2023-01-25T00:10:09.974Z,18.53
2023-01-25T00:11:09.949Z,18.53
2023-01-25T00:12:09.894Z,18.55
2023-01-25T00:13:09.904Z,18.53
2023-01-25T00:14:09.912Z,18.55
2023-01-25T00:15:10.283Z,18.55
2023-01-25T00:16:09.917Z,18.55
2023-01-25T00:17:09.866Z,18.53
2023-01-25T00:18:09.823Z,18.53
2023-01-25T00:19:09.838Z,18.55
2023-01-25T00:20:09.828Z,18.53
2023-01-25T00:21:09.834Z,18.53
2023-01-25T00:22:09.796Z,18.53
2023-01-25T00:23:09.826Z,18.52
2023-01-25T00:24:09.837Z,18.53
2023-01-25T00:25:10.126Z,18.52
2023-01-25T00:26:09.743Z,18.53
2023-01-25T00:27:09.769Z,18.56
2023-01-25T00:28:09.735Z,18.53
2023-01-25T00:29:09.732Z,18.55
2023-01-25T00:30:09.692Z,18.52
2023-01-25T00:31:09.712Z,18.53
2023-01-25T00:32:09.868Z,18.53
2023-01-25T00:33:09.675Z,18.53
2023-01-25T00:34:09.677Z,18.52
2023-01-25T00:35:10.035Z,18.50
2023-01-25T00:36:09.758Z,18.50
2023-01-25T00:37:09.668Z,18.49
2023-01-25T00:38:09.632Z,18.47
2023-01-25T00:39:09.625Z,18.44
2023-01-25T00:40:09.618Z,18.44
2023-01-25T00:41:09.592Z,18.41
2023-01-25T00:42:09.567Z,18.41
2023-01-25T00:43:09.904Z,18.41
2023-01-25T00:44:09.644Z,18.41
2023-01-25T00:45:09.943Z,18.40
2023-01-25T00:46:09.640Z,18.37
2023-01-25T00:47:09.547Z,18.34
2023-01-25T00:48:09.534Z,18.29
2023-01-25T00:49:09.573Z,18.26
2023-01-25T00:50:09.485Z,18.22
2023-01-25T00:51:09.490Z,18.18
2023-01-25T00:52:09.544Z,18.13
2023-01-25T00:53:09.472Z,18.10
2023-01-25T00:54:09.465Z,18.07
2023-01-25T00:55:09.971Z,18.03
2023-01-25T00:56:09.453Z,18.01
2023-01-25T00:57:09.443Z,17.97
2023-01-25T00:58:09.425Z,17.95
2023-01-25T00:59:09.414Z,17.92
2023-01-25T01:00:09.382Z,17.89
2023-01-25T01:01:09.431Z,17.86
2023-01-25T01:02:09.360Z,17.85
2023-01-25T01:03:09.410Z,17.83
2023-01-25T01:04:09.804Z,17.82
2023-01-25T01:05:10.528Z,17.80
2023-01-25T01:06:09.342Z,17.79
2023-01-25T01:07:09.323Z,17.78
2023-01-25T01:08:09.388Z,17.76
2023-01-25T01:09:09.329Z,17.72
2023-01-25T01:10:09.274Z,17.72
2023-01-25T01:11:09.284Z,17.71
2023-01-25T01:12:09.329Z,17.70
2023-01-25T01:13:09.247Z,17.68
2023-01-25T01:14:09.320Z,17.68
2023-01-25T01:15:09.446Z,17.67
2023-01-25T01:16:09.256Z,17.65
2023-01-25T01:17:09.203Z,17.65
2023-01-25T01:18:09.196Z,17.64
2023-01-25T01:19:09.569Z,17.64
2023-01-25T01:20:09.152Z,17.64
2023-01-25T01:21:09.173Z,17.64
2023-01-25T01:22:09.154Z,17.60
2023-01-25T01:23:09.155Z,17.59
2023-01-25T01:24:09.179Z,17.59
2023-01-25T01:25:09.488Z,17.59
2023-01-25T01:26:09.145Z,17.57
2023-01-25T01:27:09.076Z,17.57
2023-01-25T01:28:09.075Z,17.57
2023-01-25T01:29:09.085Z,17.57
2023-01-25T01:30:09.057Z,17.56
2023-01-25T01:31:09.082Z,17.54
2023-01-25T01:32:09.214Z,17.56
2023-01-25T01:33:09.006Z,17.56
2023-01-25T01:34:09.009Z,17.54
2023-01-25T01:35:09.468Z,17.54
2023-01-25T01:36:09.005Z,17.52
2023-01-25T01:37:08.979Z,17.52
2023-01-25T01:38:08.967Z,17.51
2023-01-25T01:39:08.966Z,17.49
2023-01-25T01:40:08.926Z,17.49
2023-01-25T01:41:08.932Z,17.48
2023-01-25T01:42:08.921Z,17.48
2023-01-25T01:43:08.906Z,17.46
2023-01-25T01:44:08.887Z,17.46
2023-01-25T01:45:09.274Z,17.46
2023-01-25T01:46:08.916Z,17.46
2023-01-25T01:47:08.868Z,17.46
2023-01-25T01:48:08.865Z,17.44
2023-01-25T01:49:09.259Z,17.45
2023-01-25T01:50:08.855Z,17.44
2023-01-25T01:51:08.839Z,17.44
2023-01-25T01:52:08.805Z,17.42
2023-01-25T01:53:08.800Z,17.44
2023-01-25T01:54:08.807Z,17.41
2023-01-25T01:55:09.077Z,17.42
2023-01-25T01:56:08.772Z,17.41
2023-01-25T01:57:08.790Z,17.41
2023-01-25T01:58:08.771Z,17.39
2023-01-25T01:59:08.721Z,17.39
2023-01-25T02:00:08.742Z,17.39
2023-01-25T02:01:08.739Z,17.38
2023-01-25T02:02:08.718Z,17.38
2023-01-25T02:03:08.705Z,17.36
2023-01-25T02:04:08.673Z,17.34
2023-01-25T02:05:09.151Z,17.36
2023-01-25T02:06:18.729Z,17.34
2023-01-25T02:07:08.636Z,17.36
2023-01-25T02:08:17.296Z,17.34
2023-01-25T02:09:08.646Z,17.34
2023-01-25T02:10:15.630Z,17.33
2023-01-25T02:11:08.595Z,17.33
2023-01-25T02:12:16.089Z,17.31
2023-01-25T02:13:08.565Z,17.31
2023-01-25T02:14:08.562Z,17.31
2023-01-25T02:15:08.918Z,17.31
2023-01-25T02:16:08.539Z,17.31
2023-01-25T02:17:08.618Z,17.30
2023-01-25T02:18:08.508Z,17.30
2023-01-25T02:19:08.564Z,17.29
2023-01-25T02:20:08.519Z,17.27
2023-01-25T02:21:08.900Z,17.29
2023-01-25T02:22:08.464Z,17.27
2023-01-25T02:23:08.508Z,17.27
2023-01-25T02:24:08.482Z,17.27
2023-01-25T02:25:08.717Z,17.26
2023-01-25T02:26:08.449Z,17.24
2023-01-25T02:27:08.467Z,17.23
2023-01-25T02:28:08.411Z,17.24
2023-01-25T02:29:15.914Z,17.22
2023-01-25T02:30:08.551Z,17.23
2023-01-25T02:31:08.520Z,17.23
2023-01-25T02:32:08.416Z,17.23
2023-01-25T02:33:08.362Z,17.23
2023-01-25T02:34:08.351Z,17.23
2023-01-25T02:35:08.684Z,17.23
2023-01-25T02:36:08.315Z,17.23
2023-01-25T02:37:08.318Z,17.23
2023-01-25T02:38:08.303Z,17.22
2023-01-25T02:39:08.322Z,17.20
2023-01-25T02:40:08.272Z,17.20
2023-01-25T02:41:08.278Z,17.20
2023-01-25T02:42:08.249Z,17.19
2023-01-25T02:43:08.271Z,17.20
2023-01-25T02:44:08.261Z,17.19
2023-01-25T02:45:08.671Z,17.16
2023-01-25T02:46:08.230Z,17.16
2023-01-25T02:47:08.207Z,17.16
2023-01-25T02:48:08.231Z,17.15
2023-01-25T02:49:08.210Z,17.15
2023-01-25T02:50:08.155Z,17.14
2023-01-25T02:51:08.154Z,17.14
2023-01-25T02:52:08.181Z,17.12
2023-01-25T02:53:08.155Z,17.12
2023-01-25T02:54:08.119Z,17.12
2023-01-25T02:55:08.414Z,17.12
2023-01-25T02:56:08.099Z,17.12
2023-01-25T02:57:08.094Z,17.11
2023-01-25T02:58:08.089Z,17.09
2023-01-25T02:59:08.089Z,17.11
2023-01-25T03:00:08.087Z,17.11
2023-01-25T03:01:08.107Z,17.09
2023-01-25T03:02:08.037Z,17.09
2023-01-25T03:03:08.020Z,17.11
2023-01-25T03:04:08.017Z,17.08
2023-01-25T03:05:08.337Z,17.08
2023-01-25T03:06:08.002Z,17.08
2023-01-25T03:07:07.974Z,17.08
2023-01-25T03:08:08.001Z,17.06
2023-01-25T03:09:08.053Z,17.06
2023-01-25T03:10:07.948Z,17.05
2023-01-25T03:11:07.947Z,17.04
2023-01-25T03:12:07.912Z,17.06
2023-01-25T03:13:07.958Z,17.08
2023-01-25T03:14:07.894Z,17.06
2023-01-25T03:15:08.420Z,17.08
2023-01-25T03:16:07.943Z,17.08
2023-01-25T03:17:07.890Z,17.06
2023-01-25T03:18:07.872Z,17.08
2023-01-25T03:19:07.857Z,17.06
2023-01-25T03:20:07.827Z,17.06
2023-01-25T03:21:07.858Z,17.06
2023-01-25T03:22:07.815Z,17.09
2023-01-25T03:23:07.827Z,17.08
2023-01-25T03:24:07.863Z,17.09
2023-01-25T03:25:08.073Z,17.11
2023-01-25T03:26:07.777Z,17.11
2023-01-25T03:27:07.767Z,17.11
2023-01-25T03:28:07.754Z,17.14
2023-01-25T03:29:07.740Z,17.11
2023-01-25T03:30:07.712Z,17.14
2023-01-25T03:31:07.773Z,17.12
2023-01-25T03:32:07.835Z,17.14
2023-01-25T03:33:07.707Z,17.15
2023-01-25T03:34:07.674Z,17.16
2023-01-25T03:35:07.910Z,17.19
2023-01-25T03:36:07.738Z,17.19
2023-01-25T03:37:07.668Z,17.19
2023-01-25T03:38:07.648Z,17.22
2023-01-25T03:39:07.639Z,17.20
2023-01-25T03:40:07.630Z,17.23
2023-01-25T03:41:07.672Z,17.23
2023-01-25T03:42:07.608Z,17.24
2023-01-25T03:43:07.618Z,17.26
2023-01-25T03:44:07.579Z,17.26
2023-01-25T03:45:07.650Z,17.27
2023-01-25T03:46:07.557Z,17.29
2023-01-25T03:47:07.639Z,17.30
2023-01-25T03:48:07.545Z,17.31
2023-01-25T03:49:07.539Z,17.33
2023-01-25T03:50:07.572Z,17.33
2023-01-25T03:51:07.505Z,17.34
2023-01-25T03:52:07.504Z,17.36
2023-01-25T03:53:07.499Z,17.38
2023-01-25T03:54:07.481Z,17.39
2023-01-25T03:55:07.816Z,17.39
2023-01-25T03:56:07.455Z,17.41
2023-01-25T03:57:07.423Z,17.42
2023-01-25T03:58:07.410Z,17.42
2023-01-25T03:59:07.424Z,17.44
2023-01-25T04:00:07.421Z,17.45
2023-01-25T04:01:07.579Z,17.46
2023-01-25T04:02:07.432Z,17.46
2023-01-25T04:03:07.377Z,17.46
2023-01-25T04:04:07.355Z,17.49
2023-01-25T04:05:07.659Z,17.49
2023-01-25T04:06:07.354Z,17.51
2023-01-25T04:07:07.310Z,17.51
2023-01-25T04:08:07.302Z,17.52
2023-01-25T04:09:07.316Z,17.52
2023-01-25T04:10:07.303Z,17.54
2023-01-25T04:11:07.294Z,17.56
2023-01-25T04:12:07.274Z,17.57
2023-01-25T04:13:07.263Z,17.57
2023-01-25T04:14:07.269Z,17.59
2023-01-25T04:15:07.611Z,17.60
2023-01-25T04:16:07.276Z,17.59
2023-01-25T04:17:07.227Z,17.59
2023-01-25T04:18:07.193Z,17.60
2023-01-25T04:19:07.197Z,17.59
2023-01-25T04:20:07.195Z,17.59
2023-01-25T04:21:07.172Z,17.60
2023-01-25T04:22:07.191Z,17.57
2023-01-25T04:23:07.164Z,17.57
2023-01-25T04:24:07.234Z,17.59
2023-01-25T04:25:07.728Z,17.57
2023-01-25T04:26:07.123Z,17.59
2023-01-25T04:27:07.114Z,17.59
2023-01-25T04:28:07.089Z,17.57
2023-01-25T04:29:07.085Z,17.57
2023-01-25T04:30:07.079Z,17.59
2023-01-25T04:31:07.072Z,17.59
2023-01-25T04:32:07.173Z,17.59
2023-01-25T04:33:07.053Z,17.59
2023-01-25T04:34:07.032Z,17.57
2023-01-25T04:35:07.472Z,17.57
2023-01-25T04:36:07.003Z,17.56
2023-01-25T04:37:07.018Z,17.59
2023-01-25T04:38:06.976Z,17.57
2023-01-25T04:39:07.008Z,17.56
2023-01-25T04:40:06.974Z,17.57
2023-01-25T04:41:06.936Z,17.56
2023-01-25T04:42:06.935Z,17.57
2023-01-25T04:43:06.929Z,17.56
2023-01-25T04:44:06.946Z,17.57
2023-01-25T04:45:07.434Z,17.57
2023-01-25T04:46:06.937Z,17.57
2023-01-25T04:47:06.871Z,17.57
2023-01-25T04:48:06.861Z,17.57
2023-01-25T04:49:06.865Z,17.57
2023-01-25T04:50:07.440Z,17.57
2023-01-25T04:51:06.907Z,17.57
2023-01-25T04:52:06.821Z,17.59
2023-01-25T04:53:06.831Z,17.57
2023-01-25T04:54:06.813Z,17.59
2023-01-25T04:55:06.838Z,17.59
2023-01-25T04:56:06.799Z,17.59
2023-01-25T04:57:06.793Z,17.59
2023-01-25T04:58:06.764Z,17.60
2023-01-25T04:59:06.752Z,17.60
2023-01-25T05:00:06.784Z,17.60
2023-01-25T05:01:06.804Z,17.60
2023-01-25T05:02:06.744Z,17.60
2023-01-25T05:03:06.703Z,17.63
2023-01-25T05:04:06.773Z,17.63
2023-01-25T05:05:07.461Z,17.63
2023-01-25T05:06:06.679Z,17.64
2023-01-25T05:07:06.681Z,17.64
2023-01-25T05:08:06.662Z,17.64
2023-01-25T05:09:06.653Z,17.64
2023-01-25T05:10:06.647Z,17.64
2023-01-25T05:11:06.649Z,17.64
2023-01-25T05:12:06.610Z,17.65
2023-01-25T05:13:06.617Z,17.65
2023-01-25T05:14:06.574Z,17.65
2023-01-25T05:15:06.630Z,17.67
2023-01-25T05:16:07.785Z,17.67
2023-01-25T05:17:06.562Z,17.67
2023-01-25T05:18:06.537Z,17.67
2023-01-25T05:19:06.537Z,17.67
2023-01-25T05:20:06.527Z,17.64
2023-01-25T05:21:06.551Z,17.67
2023-01-25T05:22:06.513Z,17.67
2023-01-25T05:23:06.487Z,17.67
2023-01-25T05:24:06.571Z,17.67
2023-01-25T05:25:06.570Z,17.65
2023-01-25T05:26:06.468Z,17.67
2023-01-25T05:27:06.452Z,17.65
2023-01-25T05:28:06.431Z,17.65
2023-01-25T05:29:06.465Z,17.67
2023-01-25T05:30:06.418Z,17.67
2023-01-25T05:31:06.476Z,17.67
2023-01-25T05:32:06.393Z,17.67
2023-01-25T05:33:06.401Z,17.67
2023-01-25T05:34:06.352Z,17.68
2023-01-25T05:35:06.782Z,17.68
2023-01-25T05:36:06.332Z,17.68
2023-01-25T05:37:06.342Z,17.70
2023-01-25T05:38:06.313Z,17.70
2023-01-25T05:39:06.305Z,17.68
2023-01-25T05:40:06.295Z,17.68
2023-01-25T05:41:06.325Z,17.70
2023-01-25T05:42:06.307Z,17.70
2023-01-25T05:43:06.293Z,17.71
2023-01-25T05:44:06.247Z,17.71
2023-01-25T05:45:06.281Z,17.70
2023-01-25T05:46:06.282Z,17.71
2023-01-25T05:47:06.241Z,17.72
2023-01-25T05:48:06.220Z,17.72
2023-01-25T05:49:06.194Z,17.71
2023-01-25T05:50:08.146Z,17.72
2023-01-25T05:51:06.186Z,17.74
2023-01-25T05:52:06.208Z,17.74
2023-01-25T05:53:06.281Z,17.76
2023-01-25T05:54:06.163Z,17.76
2023-01-25T05:55:06.198Z,17.74
2023-01-25T05:56:06.152Z,17.74
2023-01-25T05:57:06.132Z,17.76
2023-01-25T05:58:06.139Z,17.76
2023-01-25T05:59:06.083Z,17.76
2023-01-25T06:00:06.089Z,17.76
2023-01-25T06:01:06.055Z,17.78
2023-01-25T06:02:06.064Z,17.76
2023-01-25T06:03:06.450Z,17.78
2023-01-25T06:04:06.030Z,17.78
2023-01-25T06:05:06.028Z,17.79
2023-01-25T06:06:06.022Z,17.79
2023-01-25T06:07:06.019Z,17.79
2023-01-25T06:08:05.991Z,17.78
2023-01-25T06:09:06.014Z,17.79
2023-01-25T06:10:05.967Z,17.80
2023-01-25T06:11:05.961Z,17.80
2023-01-25T06:12:05.981Z,17.80
2023-01-25T06:13:06.198Z,17.80
2023-01-25T06:14:05.944Z,17.80
2023-01-25T06:15:05.905Z,17.82
2023-01-25T06:16:06.703Z,17.80
2023-01-25T06:17:06.151Z,17.82
2023-01-25T06:18:05.919Z,17.82
2023-01-25T06:19:05.895Z,17.82
2023-01-25T06:20:05.884Z,17.83
2023-01-25T06:21:05.845Z,17.85
2023-01-25T06:22:05.853Z,17.85
2023-01-25T06:23:06.011Z,17.86
2023-01-25T06:24:05.908Z,17.87
2023-01-25T06:25:06.114Z,17.85
2023-01-25T06:26:05.801Z,17.86
2023-01-25T06:27:05.810Z,17.86
2023-01-25T06:28:05.786Z,17.87
2023-01-25T06:29:05.784Z,17.89
2023-01-25T06:30:05.799Z,17.87
2023-01-25T06:31:05.818Z,17.89
2023-01-25T06:32:05.783Z,17.90
2023-01-25T06:33:05.733Z,17.89
2023-01-25T06:34:05.732Z,17.90
2023-01-25T06:35:05.736Z,17.90
2023-01-25T06:36:05.686Z,17.92
2023-01-25T06:37:05.693Z,17.92
2023-01-25T06:38:05.674Z,17.90
2023-01-25T06:39:05.651Z,17.92
2023-01-25T06:40:05.674Z,17.92
2023-01-25T06:41:05.625Z,17.94
2023-01-25T06:42:05.622Z,17.92
2023-01-25T06:43:05.610Z,17.95
2023-01-25T06:44:05.589Z,17.95
2023-01-25T06:45:05.641Z,17.95
2023-01-25T06:46:05.604Z,17.95
2023-01-25T06:47:05.570Z,17.95
2023-01-25T06:48:05.579Z,17.97
2023-01-25T06:49:05.560Z,17.97
2023-01-25T06:50:05.562Z,17.97
2023-01-25T06:51:05.542Z,17.98
2023-01-25T06:52:05.543Z,17.97
2023-01-25T06:53:05.528Z,17.98
2023-01-25T06:54:05.564Z,17.98
2023-01-25T06:55:05.531Z,17.97
2023-01-25T06:56:05.511Z,18.00
2023-01-25T06:57:05.457Z,17.98
2023-01-25T06:58:05.447Z,18.01
2023-01-25T06:59:05.426Z,18.01
2023-01-25T07:00:05.514Z,18.01
2023-01-25T07:01:05.419Z,18.03
2023-01-25T07:02:05.447Z,18.03
2023-01-25T07:03:07.160Z,18.04
2023-01-25T07:04:06.891Z,18.04
2023-01-25T07:05:05.653Z,18.05
2023-01-25T07:06:05.384Z,18.05
2023-01-25T07:07:05.388Z,18.08
2023-01-25T07:08:05.392Z,18.10
2023-01-25T07:09:05.347Z,18.11
2023-01-25T07:10:05.602Z,18.11
2023-01-25T07:11:05.561Z,18.15
2023-01-25T07:12:05.340Z,18.15
2023-01-25T07:13:05.337Z,18.18
2023-01-25T07:14:05.320Z,18.18
2023-01-25T07:15:05.296Z,18.19
2023-01-25T07:16:05.323Z,18.20
2023-01-25T07:17:05.260Z,18.23
2023-01-25T07:18:15.709Z,18.23
2023-01-25T07:19:06.257Z,18.25
2023-01-25T07:20:05.243Z,18.26
2023-01-25T07:21:05.228Z,18.28
2023-01-25T07:22:05.203Z,18.29
2023-01-25T07:23:05.227Z,18.29
2023-01-25T07:24:05.280Z,18.34
2023-01-25T07:25:05.177Z,18.35
2023-01-25T07:26:05.180Z,18.35
2023-01-25T07:27:05.192Z,18.38
2023-01-25T07:28:05.169Z,18.40
2023-01-25T07:29:05.411Z,18.40
2023-01-25T07:30:05.144Z,18.41
2023-01-25T07:31:05.171Z,18.41
2023-01-25T07:32:05.105Z,18.41
2023-01-25T07:33:05.076Z,18.40
2023-01-25T07:34:05.094Z,18.43
2023-01-25T07:35:05.096Z,18.41
2023-01-25T07:36:05.095Z,18.41
2023-01-25T07:37:05.029Z,18.41
2023-01-25T07:38:05.102Z,18.41
2023-01-25T07:39:05.029Z,18.43
2023-01-25T07:40:05.002Z,18.43
2023-01-25T07:41:04.986Z,18.41
2023-01-25T07:42:05.044Z,18.41
2023-01-25T07:43:04.963Z,18.43
2023-01-25T07:44:04.958Z,18.43
2023-01-25T07:45:04.954Z,18.41
2023-01-25T07:46:04.996Z,18.43
2023-01-25T07:47:04.938Z,18.41
2023-01-25T07:48:04.923Z,18.41
2023-01-25T07:49:04.896Z,18.38
2023-01-25T07:50:04.910Z,18.38
2023-01-25T07:51:04.898Z,18.38
2023-01-25T07:52:04.888Z,18.35
2023-01-25T07:53:04.828Z,18.35
2023-01-25T07:54:04.843Z,18.34
2023-01-25T07:55:04.835Z,18.33
2023-01-25T07:56:04.853Z,18.33
2023-01-25T07:57:04.830Z,18.31
2023-01-25T07:58:04.811Z,18.31
2023-01-25T07:59:04.884Z,18.29
2023-01-25T08:00:04.787Z,18.28
2023-01-25T08:01:04.758Z,18.28
2023-01-25T08:02:04.766Z,18.25
2023-01-25T08:03:04.727Z,18.23
2023-01-25T08:04:04.730Z,18.23
2023-01-25T08:05:04.719Z,18.23
2023-01-25T08:06:04.711Z,18.23
2023-01-25T08:07:04.756Z,18.20
2023-01-25T08:08:04.676Z,18.20
2023-01-25T08:09:04.683Z,18.19
2023-01-25T08:10:04.660Z,18.19
2023-01-25T08:11:04.656Z,18.19
2023-01-25T08:12:06.343Z,18.19
2023-01-25T08:13:04.652Z,18.19
2023-01-25T08:14:04.643Z,18.19
2023-01-25T08:15:04.601Z,18.20
2023-01-25T08:16:04.587Z,18.20
2023-01-25T08:17:04.599Z,18.22
2023-01-25T08:18:04.581Z,18.23
2023-01-25T08:19:04.554Z,18.25
2023-01-25T08:20:04.541Z,18.26
2023-01-25T08:21:04.535Z,18.28
2023-01-25T08:22:04.545Z,18.31
2023-01-25T08:23:04.515Z,18.33
2023-01-25T08:24:04.550Z,18.37
2023-01-25T08:25:04.528Z,18.38
2023-01-25T08:26:04.497Z,18.41
2023-01-25T08:27:04.532Z,18.44
2023-01-25T08:28:04.492Z,18.49
2023-01-25T08:32:50.489Z,18.62
2023-01-25T08:33:50.479Z,18.63
2023-01-25T08:34:50.479Z,18.65
2023-01-25T08:35:50.468Z,18.66
2023-01-25T08:37:50.445Z,18.68
2023-01-25T08:38:50.439Z,18.71
2023-01-25T08:39:50.421Z,18.68
2023-01-25T08:40:50.438Z,18.68
2023-01-25T08:41:50.421Z,18.70
2023-01-25T08:42:50.389Z,18.70
2023-01-25T08:43:50.380Z,18.68
2023-01-25T08:44:50.382Z,18.68
2023-01-25T08:45:50.324Z,18.70
2023-01-25T08:46:50.345Z,18.70
2023-01-25T08:47:50.314Z,18.68
2023-01-25T08:48:50.324Z,18.66
2023-01-25T08:49:50.308Z,18.65
2023-01-25T08:50:50.298Z,18.65
2023-01-25T08:51:50.329Z,18.63
2023-01-25T08:52:50.299Z,18.63
2023-01-25T08:53:50.250Z,18.62
2023-01-25T08:54:50.250Z,18.60
2023-01-25T08:55:50.227Z,18.60
2023-01-25T08:56:50.228Z,18.59
2023-01-25T08:57:50.193Z,18.59
2023-01-25T08:58:50.216Z,18.58
2023-01-25T08:59:50.196Z,18.56
2023-01-25T09:00:50.187Z,18.55
2023-01-25T09:01:50.177Z,18.55
2023-01-25T09:02:50.185Z,18.53
2023-01-25T09:03:50.363Z,18.52
2023-01-25T09:04:50.166Z,18.52
2023-01-25T09:05:50.118Z,18.50
2023-01-25T09:06:50.150Z,18.50
2023-01-25T09:07:50.103Z,18.49
2023-01-25T09:08:50.108Z,18.47
2023-01-25T09:09:50.095Z,18.45
2023-01-25T09:10:50.073Z,18.44
2023-01-25T09:11:50.115Z,18.43
2023-01-25T09:12:50.049Z,18.44
2023-01-25T09:13:50.039Z,18.43
2023-01-25T09:14:50.038Z,18.43
2023-01-25T09:15:50.046Z,18.41
2023-01-25T09:16:50.053Z,18.41
2023-01-25T09:17:50.045Z,18.41
2023-01-25T09:18:50.927Z,18.40
2023-01-25T09:20:50.011Z,18.38
2023-01-25T09:21:49.934Z,18.38
2023-01-25T09:22:49.958Z,18.37
2023-01-25T09:23:51.597Z,18.37
2023-01-25T09:24:50.976Z,18.34
2023-01-25T09:25:49.915Z,18.34
2023-01-25T09:26:58.992Z,18.33
2023-01-25T09:27:50.883Z,18.31
2023-01-25T09:28:49.921Z,18.29
2023-01-25T09:30:13.713Z,18.29
2023-01-25T09:31:06.820Z,18.28
2023-01-25T09:31:50.999Z,18.28
2023-01-25T09:32:49.951Z,18.26
2023-01-25T09:33:49.815Z,18.25
2023-01-25T09:34:49.812Z,18.25
2023-01-25T09:35:49.842Z,18.23
2023-01-25T09:36:49.826Z,18.20
2023-01-25T09:37:49.895Z,18.20
2023-01-25T09:38:49.799Z,18.18
2023-01-25T09:39:49.770Z,18.16
2023-01-25T09:40:49.775Z,18.18
2023-01-25T09:41:49.803Z,18.18
2023-01-25T09:42:49.750Z,18.15
2023-01-25T09:43:49.744Z,18.15
2023-01-25T09:44:49.679Z,18.13
2023-01-25T09:45:49.732Z,18.13
2023-01-25T09:46:49.690Z,18.10
2023-01-25T09:47:49.675Z,18.11
2023-01-25T09:48:53.899Z,18.10
2023-01-25T09:49:50.644Z,18.08
2023-01-25T09:50:49.675Z,18.08
2023-01-25T09:51:49.626Z,18.07
2023-01-25T09:52:49.607Z,18.05
2023-01-25T09:53:49.662Z,18.07
2023-01-25T09:54:49.636Z,18.05
2023-01-25T09:55:49.581Z,18.05
2023-01-25T09:56:49.610Z,18.03
2023-01-25T09:57:49.567Z,18.04
2023-01-25T09:58:49.549Z,18.01
2023-01-25T09:59:49.562Z,18.03
2023-01-25T10:00:49.539Z,18.01
2023-01-25T10:01:49.523Z,18.01
2023-01-25T10:02:49.527Z,17.98
2023-01-25T10:03:49.540Z,17.98
2023-01-25T10:04:49.481Z,17.98
2023-01-25T10:05:49.475Z,17.95
2023-01-25T10:06:59.746Z,17.95
2023-01-25T10:07:50.449Z,17.95
2023-01-25T10:08:49.474Z,17.94
2023-01-25T10:09:49.438Z,17.92
2023-01-25T10:10:49.548Z,17.94
2023-01-25T10:11:49.407Z,17.90
2023-01-25T10:12:49.395Z,17.90
2023-01-25T10:13:49.422Z,17.89
2023-01-25T10:14:49.421Z,17.89
2023-01-25T10:15:49.396Z,17.87
2023-01-25T10:16:49.401Z,17.87
2023-01-25T10:17:49.339Z,17.86
2023-01-25T10:18:49.321Z,17.87
2023-01-25T10:19:49.352Z,17.86
2023-01-25T10:20:49.318Z,17.86
2023-01-25T10:21:49.281Z,17.85
2023-01-25T10:22:49.281Z,17.83
2023-01-25T10:23:49.318Z,17.83
2023-01-25T10:24:49.312Z,17.83
2023-01-25T10:25:49.281Z,17.83
2023-01-25T10:26:49.228Z,17.82
2023-01-25T10:27:49.241Z,17.85
2023-01-25T10:28:49.209Z,17.83
2023-01-25T10:29:49.255Z,17.83
2023-01-25T10:30:49.228Z,17.85
2023-01-25T10:31:49.267Z,17.85
2023-01-25T10:32:55.871Z,17.85
2023-01-25T10:33:50.175Z,17.85
2023-01-25T10:34:56.287Z,17.85
2023-01-25T10:35:50.157Z,17.85
2023-01-25T10:36:49.174Z,17.86
2023-01-25T10:37:49.117Z,17.86
2023-01-25T10:38:49.715Z,17.86
2023-01-25T10:39:49.120Z,17.85
2023-01-25T10:40:49.425Z,17.87
2023-01-25T10:41:49.258Z,17.86
2023-01-25T10:42:49.080Z,17.87
2023-01-25T10:43:49.041Z,17.89
2023-01-25T10:44:49.040Z,17.90
2023-01-25T10:45:49.047Z,17.89
2023-01-25T10:46:49.350Z,17.90
2023-01-25T10:47:49.025Z,17.90
2023-01-25T10:48:49.009Z,17.94
2023-01-25T10:49:48.991Z,17.94
2023-01-25T10:50:48.984Z,17.94
2023-01-25T10:51:48.978Z,17.95
2023-01-25T10:52:48.970Z,17.95
2023-01-25T10:53:48.934Z,17.97
2023-01-25T10:54:49.711Z,17.97
2023-01-25T10:55:48.913Z,17.97
2023-01-25T10:56:48.955Z,17.98
2023-01-25T10:57:48.924Z,17.98
2023-01-25T10:58:48.902Z,17.98
2023-01-25T10:59:48.893Z,18.00
2023-01-25T11:00:48.939Z,18.01
2023-01-25T11:01:48.909Z,18.01
2023-01-25T11:02:48.858Z,18.03
2023-01-25T11:03:48.843Z,18.03
2023-01-25T11:04:48.835Z,18.04
2023-01-25T11:05:48.923Z,18.04
2023-01-25T11:06:48.887Z,18.05
2023-01-25T11:07:48.826Z,18.04
2023-01-25T11:08:48.774Z,18.05
2023-01-25T11:09:48.785Z,18.05
2023-01-25T11:10:48.755Z,18.07
2023-01-25T11:11:48.725Z,18.08
2023-01-25T11:12:48.770Z,18.07
2023-01-25T11:13:48.765Z,18.08
2023-01-25T11:14:48.704Z,18.11
2023-01-25T11:15:48.755Z,18.10
2023-01-25T11:16:48.687Z,18.10
2023-01-25T11:17:50.287Z,18.10
2023-01-25T11:18:48.702Z,18.11
2023-01-25T11:19:48.645Z,18.11
2023-01-25T11:20:48.643Z,18.13
2023-01-25T11:21:48.696Z,18.13
2023-01-25T11:22:48.637Z,18.13
2023-01-25T11:23:49.263Z,18.15
2023-01-25T11:24:48.595Z,18.15
2023-01-25T11:25:48.608Z,18.16
2023-01-25T11:26:48.581Z,18.16
2023-01-25T11:27:48.631Z,18.16
2023-01-25T11:28:48.607Z,18.18
2023-01-25T11:29:48.790Z,18.18
2023-01-25T11:30:48.665Z,18.18
2023-01-25T11:31:48.607Z,18.18
2023-01-25T11:32:48.747Z,18.18
2023-01-25T11:33:48.508Z,18.18
2023-01-25T11:34:48.524Z,18.19
2023-01-25T11:35:48.485Z,18.18
2023-01-25T11:36:48.478Z,18.19
2023-01-25T11:37:48.497Z,18.18
2023-01-25T11:38:48.448Z,18.18
2023-01-25T11:39:48.632Z,18.18
2023-01-25T11:40:49.413Z,18.18
2023-01-25T11:41:48.480Z,18.18
2023-01-25T11:42:48.408Z,18.16
2023-01-25T11:43:48.415Z,18.16
2023-01-25T11:44:48.421Z,18.16
2023-01-25T11:45:48.413Z,18.16
2023-01-25T11:46:48.456Z,18.16
2023-01-25T11:47:48.352Z,18.16
2023-01-25T11:48:48.357Z,18.15
2023-01-25T11:49:48.438Z,18.15
2023-01-25T11:50:48.318Z,18.13
2023-01-25T11:51:49.959Z,18.15
2023-01-25T11:52:48.333Z,18.13
2023-01-25T11:53:48.296Z,18.15
2023-01-25T11:54:48.298Z,18.15
2023-01-25T11:55:48.284Z,18.13
2023-01-25T11:56:48.317Z,18.15
2023-01-25T11:57:48.309Z,18.15
2023-01-25T11:58:48.287Z,18.15
2023-01-25T11:59:48.234Z,18.16
2023-01-25T12:00:48.233Z,18.16
2023-01-25T12:01:48.270Z,18.18
2023-01-25T12:02:48.255Z,18.19
2023-01-25T12:03:48.251Z,18.18
2023-01-25T12:04:48.206Z,18.19
2023-01-25T12:05:48.169Z,18.19
2023-01-25T12:06:48.158Z,18.22
2023-01-25T12:07:48.184Z,18.23
2023-01-25T12:08:48.138Z,18.25
2023-01-25T12:09:48.125Z,18.28
2023-01-25T12:10:48.112Z,18.29
2023-01-25T12:11:48.124Z,18.33
2023-01-25T12:12:48.075Z,18.34
2023-01-25T12:13:48.153Z,18.35
2023-01-25T12:14:48.097Z,18.35
2023-01-25T12:15:48.124Z,18.37
2023-01-25T12:16:48.050Z,18.38
2023-01-25T12:17:48.084Z,18.41
2023-01-25T12:18:48.152Z,18.41
2023-01-25T12:19:49.672Z,18.43
2023-01-25T12:20:48.001Z,18.45
2023-01-25T12:21:48.007Z,18.45
2023-01-25T12:22:47.980Z,18.47
2023-01-25T12:23:48.020Z,18.49
2023-01-25T12:24:47.987Z,18.50
2023-01-25T12:25:47.966Z,18.50
2023-01-25T12:26:47.938Z,18.52
2023-01-25T12:27:47.979Z,18.52
2023-01-25T12:28:47.941Z,18.52
2023-01-25T12:29:47.956Z,18.52
2023-01-25T12:30:47.920Z,18.52
2023-01-25T12:31:47.968Z,18.53
2023-01-25T12:32:47.877Z,18.52
2023-01-25T12:33:47.887Z,18.52
2023-01-25T12:34:47.847Z,18.52
2023-01-25T12:35:47.864Z,18.52
2023-01-25T12:36:47.895Z,18.52
2023-01-25T12:37:47.882Z,18.50
2023-01-25T12:38:47.834Z,18.50
2023-01-25T12:39:47.797Z,18.52
2023-01-25T12:40:47.814Z,18.50
2023-01-25T12:41:47.770Z,18.49
2023-01-25T12:42:47.783Z,18.50
2023-01-25T12:43:47.797Z,18.47
2023-01-25T12:44:47.818Z,18.45
2023-01-25T12:45:47.732Z,18.45
2023-01-25T12:46:47.777Z,18.45
2023-01-25T12:47:47.729Z,18.45
2023-01-25T12:48:47.704Z,18.44
2023-01-25T12:49:47.741Z,18.43
2023-01-25T12:50:47.735Z,18.43
2023-01-25T12:51:47.659Z,18.43
2023-01-25T12:52:47.752Z,18.40
2023-01-25T12:53:47.707Z,18.41
2023-01-25T12:54:47.680Z,18.38
2023-01-25T12:55:47.642Z,18.40
2023-01-25T12:56:47.598Z,18.38
2023-01-25T12:57:47.637Z,18.38